Time;durP1;ratioP1;P1;durP2;ratioP2;P2;SDS_P1;SDS_P2;PMS_P1;PMS_P2;Temp;Humidity;BMP_temperature;BMP_pressure;BME280_temperature;BME280_humidity;BME280_pressure;Samples;Min_cycle;Max_cycle;Signal;HPM_P1;HPM_P2
2022/07/10 00:00:32;;;;;;;6.30;2.22;;;24.20;66.20;;;;;;4916587;29;20032;-79
2022/07/10 00:02:58;;;;;;;5.75;2.00;;;24.10;66.10;;;;;;4916705;29;20034;-79
2022/07/10 00:05:25;;;;;;;3.58;1.92;;;24.10;67.10;;;;;;4916833;29;20381;-80
2022/07/10 00:07:51;;;;;;;7.28;2.20;;;24.10;67.30;;;;;;4916542;29;20032;-79
2022/07/10 00:10:19;;;;;;;9.43;2.00;;;24.10;67.60;;;;;;4916758;29;20028;-79
2022/07/10 00:12:46;;;;;;;4.45;1.98;;;24.00;67.40;;;;;;4915650;29;20497;-79
2022/07/10 00:15:13;;;;;;;5.05;2.00;;;23.90;68.00;;;;;;4916456;29;20028;-79
2022/07/10 00:17:39;;;;;;;5.00;1.67;;;23.80;67.50;;;;;;4916672;29;20380;-79
2022/07/10 00:20:06;;;;;;;3.70;2.00;;;23.90;67.70;;;;;;4916523;29;20028;-79
2022/07/10 00:22:34;;;;;;;11.15;2.08;;;23.80;68.20;;;;;;4916079;29;20028;-79
2022/07/10 00:25:01;;;;;;;4.00;2.05;;;23.70;68.30;;;;;;4916519;29;20059;-79
2022/07/10 00:27:27;;;;;;;6.03;2.17;;;23.70;69.10;;;;;;4914915;29;20393;-79
2022/07/10 00:29:52;;;;;;;4.97;2.30;;;23.70;69.80;;;;;;4916108;29;20101;-80
2022/07/10 00:32:18;;;;;;;7.20;1.92;;;23.70;69.20;;;;;;4916245;29;20031;-79
2022/07/10 00:34:44;;;;;;;5.40;2.10;;;23.60;69.30;;;;;;4916384;29;20035;-79
2022/07/10 00:37:10;;;;;;;7.00;2.03;;;23.60;69.60;;;;;;4919580;29;20024;-79
2022/07/10 00:39:36;;;;;;;3.88;2.00;;;23.50;69.70;;;;;;4920256;29;20032;-80
2022/07/10 00:42:09;;;;;;;3.80;2.00;;;23.50;70.40;;;;;;4919447;29;20036;-79
2022/07/10 00:44:35;;;;;;;7.32;2.33;;;23.50;70.00;;;;;;4920048;29;20036;-79
2022/07/10 00:47:01;;;;;;;3.55;1.70;;;23.30;70.80;;;;;;4920117;29;20051;-79
2022/07/10 00:49:27;;;;;;;5.35;1.60;;;23.30;70.80;;;;;;4920059;29;20054;-80
2022/07/10 00:51:53;;;;;;;10.23;2.00;;;23.40;71.00;;;;;;4919754;29;20548;-79
2022/07/10 00:54:20;;;;;;;6.95;1.90;;;23.30;70.50;;;;;;4920433;29;20031;-79
2022/07/10 00:56:46;;;;;;;4.35;2.00;;;23.20;71.00;;;;;;4918613;29;20152;-79
2022/07/10 00:59:12;;;;;;;5.40;1.83;;;23.20;70.40;;;;;;4917963;29;20607;-79
2022/07/10 01:01:37;;;;;;;4.55;2.03;;;23.10;70.60;;;;;;4919136;29;20024;-79
2022/07/10 01:04:03;;;;;;;4.38;2.00;;;23.10;71.70;;;;;;4919338;29;20028;-78
2022/07/10 01:06:29;;;;;;;4.28;1.67;;;23.00;71.70;;;;;;4919320;29;20342;-79
2022/07/10 01:08:54;;;;;;;9.38;1.63;;;23.00;71.40;;;;;;4919631;29;20107;-79
2022/07/10 01:11:21;;;;;;;6.18;2.10;;;23.10;71.50;;;;;;4919311;29;20107;-79
2022/07/10 01:13:47;;;;;;;5.93;2.30;;;22.90;72.00;;;;;;4919144;29;20024;-79
2022/07/10 01:16:13;;;;;;;5.75;1.90;;;22.80;72.80;;;;;;4919577;29;20027;-79
2022/07/10 01:18:39;;;;;;;7.82;2.05;;;22.80;73.20;;;;;;4919233;29;20028;-79
2022/07/10 01:21:05;;;;;;;5.15;2.05;;;22.70;73.00;;;;;;4918946;29;20396;-79
2022/07/10 01:23:30;;;;;;;4.65;1.70;;;22.70;73.00;;;;;;4919578;29;20047;-79
2022/07/10 01:25:56;;;;;;;6.43;1.98;;;22.80;73.40;;;;;;4919064;29;20085;-79
2022/07/10 01:28:22;;;;;;;5.47;1.73;;;22.70;73.80;;;;;;4919345;29;20437;-79
2022/07/10 01:30:49;;;;;;;5.60;1.83;;;22.60;73.90;;;;;;4918795;29;20496;-79
2022/07/10 01:33:14;;;;;;;7.38;2.00;;;22.60;74.30;;;;;;4918870;29;20028;-79
2022/07/10 01:35:41;;;;;;;6.88;2.10;;;22.60;75.00;;;;;;4917687;29;20071;-79
2022/07/10 01:38:07;;;;;;;3.05;1.83;;;22.50;75.60;;;;;;4918313;29;20028;-79
2022/07/10 01:40:33;;;;;;;7.25;1.70;;;22.50;75.70;;;;;;4918486;29;20021;-79
2022/07/10 01:42:58;;;;;;;6.07;1.90;;;22.50;76.00;;;;;;4918667;29;20075;-79
2022/07/10 01:45:25;;;;;;;5.93;2.40;;;22.40;76.20;;;;;;4918900;29;20035;-79
2022/07/10 01:47:50;;;;;;;3.10;1.58;;;22.30;76.50;;;;;;4918894;29;20035;-79
2022/07/10 01:50:16;;;;;;;5.30;2.40;;;22.30;77.30;;;;;;4919043;29;20020;-79
2022/07/10 01:52:42;;;;;;;6.47;2.30;;;22.20;77.50;;;;;;4918774;29;20032;-80
2022/07/10 01:55:08;;;;;;;8.20;2.03;;;22.30;77.50;;;;;;4918116;29;20032;-79
2022/07/10 01:57:34;;;;;;;5.53;1.95;;;22.20;78.10;;;;;;4918795;29;20131;-79
2022/07/10 02:00:00;;;;;;;5.10;1.90;;;22.20;78.20;;;;;;4918744;29;20024;-79
2022/07/10 02:02:25;;;;;;;7.55;2.10;;;22.10;78.40;;;;;;4918943;29;20025;-79
2022/07/10 02:04:51;;;;;;;5.13;1.80;;;22.00;79.50;;;;;;4917498;29;20092;-79
2022/07/10 02:07:22;;;;;;;7.07;2.25;;;21.80;80.00;;;;;;4918400;29;20039;-79
2022/07/10 02:09:47;;;;;;;4.53;2.00;;;21.90;80.10;;;;;;4918270;29;20016;-79
2022/07/10 02:12:15;;;;;;;5.90;1.70;;;22.00;80.20;;;;;;4918627;29;20350;-79
2022/07/10 02:14:41;;;;;;;3.90;1.80;;;22.00;80.40;;;;;;4918502;29;20491;-79
2022/07/10 02:17:07;;;;;;;4.47;1.70;;;21.90;80.70;;;;;;4918290;29;20028;-79
2022/07/10 02:19:33;;;;;;;8.15;1.80;;;22.00;80.60;;;;;;4915462;29;20024;-79
2022/07/10 02:22:00;;;;;;;4.68;1.85;;;21.90;81.40;;;;;;4918309;29;20560;-79
2022/07/10 02:24:26;;;;;;;4.55;2.00;;;21.80;81.70;;;;;;4916533;29;20390;-79
2022/07/10 02:26:52;;;;;;;11.95;1.92;;;21.80;82.00;;;;;;4918324;29;20036;-79
2022/07/10 02:29:18;;;;;;;5.45;2.25;;;21.70;82.30;;;;;;4918298;29;20044;-79
2022/07/10 02:31:44;;;;;;;4.60;2.30;;;21.80;82.60;;;;;;4918495;29;20531;-79
2022/07/10 02:34:14;;;;;;;4.00;1.83;;;21.70;82.40;;;;;;4916148;29;20016;-79
2022/07/10 02:36:40;;;;;;;8.73;2.10;;;21.60;83.10;;;;;;4917464;29;20067;-79
2022/07/10 02:39:06;;;;;;;6.15;1.75;;;21.50;82.90;;;;;;4917767;29;20025;-79
2022/07/10 02:41:32;;;;;;;6.55;2.50;;;21.40;83.70;;;;;;4918134;29;20032;-80
2022/07/10 02:43:58;;;;;;;5.38;1.98;;;21.40;83.70;;;;;;4918175;29;20024;-79
2022/07/10 02:46:24;;;;;;;3.88;2.10;;;21.40;83.80;;;;;;4918116;29;20189;-79
2022/07/10 02:48:50;;;;;;;7.05;2.00;;;21.40;84.30;;;;;;4916473;29;20496;-79
2022/07/10 02:51:16;;;;;;;4.60;1.88;;;21.50;83.90;;;;;;4917110;29;20061;-79
2022/07/10 02:53:41;;;;;;;4.70;2.20;;;21.60;83.40;;;;;;4916615;29;20020;-79
2022/07/10 02:56:07;;;;;;;8.30;2.08;;;21.60;83.80;;;;;;4917496;29;20079;-79
2022/07/10 02:58:33;;;;;;;3.13;1.70;;;21.50;84.10;;;;;;4916459;29;20048;-79
2022/07/10 03:00:59;;;;;;;6.28;2.10;;;21.50;84.60;;;;;;4917354;29;20027;-78
2022/07/10 03:03:25;;;;;;;6.68;2.22;;;21.50;84.80;;;;;;4917568;29;20032;-79
2022/07/10 03:05:51;;;;;;;4.57;1.65;;;21.40;84.80;;;;;;4917766;29;20039;-79
2022/07/10 03:08:17;;;;;;;4.78;1.77;;;21.20;84.90;;;;;;4916901;29;20024;-79
2022/07/10 03:10:42;;;;;;;6.05;1.77;;;21.30;85.10;;;;;;4917550;29;20056;-79
2022/07/10 03:13:08;;;;;;;8.43;2.00;;;21.30;85.20;;;;;;4917312;29;20024;-79
2022/07/10 03:15:34;;;;;;;8.20;1.73;;;21.30;85.40;;;;;;4917357;29;20028;-79
2022/07/10 03:17:59;;;;;;;4.13;1.83;;;21.30;85.70;;;;;;4917083;29;20045;-79
2022/07/10 03:20:25;;;;;;;4.90;2.15;;;21.30;86.00;;;;;;4916935;29;20036;-79
2022/07/10 03:22:51;;;;;;;4.90;1.92;;;21.20;86.20;;;;;;4916706;29;20032;-79
2022/07/10 03:25:17;;;;;;;5.35;2.15;;;21.10;86.10;;;;;;4917287;29;20452;-79
2022/07/10 03:27:42;;;;;;;5.15;2.03;;;21.10;87.10;;;;;;4917317;29;20379;-79
2022/07/10 03:30:09;;;;;;;6.20;2.10;;;21.00;86.90;;;;;;4916845;29;20020;-79
2022/07/10 03:32:34;;;;;;;3.38;1.70;;;21.00;86.90;;;;;;4917144;29;20024;-79
2022/07/10 03:35:00;;;;;;;5.07;2.28;;;21.00;86.90;;;;;;4917147;29;20039;-79
2022/07/10 03:37:26;;;;;;;3.53;1.73;;;21.10;87.00;;;;;;4916494;29;20472;-79
2022/07/10 03:39:52;;;;;;;4.65;2.00;;;21.00;87.50;;;;;;4917056;29;20028;-79
2022/07/10 03:42:18;;;;;;;3.58;2.00;;;21.10;87.20;;;;;;4916726;29;20028;-79
2022/07/10 03:44:44;;;;;;;5.70;2.10;;;21.10;87.10;;;;;;4916843;29;20032;-79
2022/07/10 03:47:10;;;;;;;5.38;1.83;;;21.00;87.80;;;;;;4916813;29;20488;-79
2022/07/10 03:49:38;;;;;;;4.13;1.80;;;20.90;87.80;;;;;;4916294;29;20058;-79
2022/07/10 03:52:04;;;;;;;4.25;2.30;;;20.80;88.80;;;;;;4916119;29;20554;-79
2022/07/10 03:54:30;;;;;;;5.57;2.00;;;20.80;88.90;;;;;;4916359;29;20020;-79
2022/07/10 03:59:41;;;;;;;9.13;2.00;;;20.70;89.70;;;;;;4900770;29;20107;-79
2022/07/10 04:02:07;;;;;;;5.80;2.35;;;20.60;89.80;;;;;;4915164;29;20044;-79
2022/07/10 04:04:33;;;;;;;5.85;2.08;;;20.40;90.80;;;;;;4916007;29;20076;-79
2022/07/10 04:06:59;;;;;;;6.65;2.17;;;20.50;90.90;;;;;;4916088;29;20047;-79
2022/07/10 04:09:25;;;;;;;3.47;2.05;;;20.40;91.10;;;;;;4916475;29;20489;-80
2022/07/10 04:11:50;;;;;;;10.18;2.20;;;20.20;91.40;;;;;;4916631;29;20056;-79
2022/07/10 04:14:16;;;;;;;4.97;2.30;;;20.30;91.10;;;;;;4916439;29;20032;-79
2022/07/10 04:16:42;;;;;;;7.95;2.67;;;20.40;91.30;;;;;;4916645;29;20020;-79
2022/07/10 04:19:07;;;;;;;3.70;2.30;;;20.50;91.30;;;;;;4916688;29;20087;-79
2022/07/10 04:21:33;;;;;;;3.92;1.95;;;20.50;90.90;;;;;;4916179;29;20393;-79
2022/07/10 04:23:59;;;;;;;9.40;2.30;;;20.40;91.00;;;;;;4916197;29;20024;-79
2022/07/10 04:26:24;;;;;;;5.05;2.25;;;20.40;91.50;;;;;;4915543;29;20111;-79
2022/07/10 04:28:50;;;;;;;6.10;2.15;;;20.40;91.50;;;;;;4916459;29;20501;-79
2022/07/10 04:31:16;;;;;;;4.28;2.05;;;20.30;91.70;;;;;;4916554;29;20024;-79
2022/07/10 04:33:41;;;;;;;7.80;2.67;;;20.30;91.70;;;;;;4916382;29;20115;-78
2022/07/10 04:36:07;;;;;;;5.88;2.30;;;20.20;91.90;;;;;;4916337;29;20020;-79
2022/07/10 04:38:33;;;;;;;5.13;2.08;;;20.20;92.00;;;;;;4916509;29;20036;-79
2022/07/10 04:40:59;;;;;;;5.07;1.98;;;20.20;92.00;;;;;;4916406;29;20046;-79
2022/07/10 04:43:25;;;;;;;5.47;2.63;;;20.20;92.10;;;;;;4916446;29;20791;-79
2022/07/10 04:45:51;;;;;;;4.55;1.90;;;20.30;92.00;;;;;;4916405;29;20055;-79
2022/07/10 04:48:16;;;;;;;9.07;2.50;;;20.20;92.20;;;;;;4915491;29;20549;-79
2022/07/10 04:50:42;;;;;;;5.78;2.50;;;20.10;92.40;;;;;;4916447;29;20040;-79
2022/07/10 04:53:08;;;;;;;4.40;2.30;;;20.10;92.40;;;;;;4916390;29;20031;-79
2022/07/10 04:55:33;;;;;;;8.50;2.15;;;20.20;92.50;;;;;;4916174;29;20619;-79
2022/07/10 04:57:59;;;;;;;7.72;2.30;;;20.20;92.60;;;;;;4915496;29;20047;-79
2022/07/10 05:00:25;;;;;;;4.72;2.25;;;20.10;92.50;;;;;;4915950;29;20036;-79
2022/07/10 05:02:50;;;;;;;5.95;2.20;;;20.10;92.70;;;;;;4915867;29;20036;-79
2022/07/10 05:05:16;;;;;;;5.13;1.90;;;20.10;92.80;;;;;;4916304;29;20028;-79
2022/07/10 05:07:42;;;;;;;5.85;2.22;;;20.10;92.90;;;;;;4916227;29;20029;-79
2022/07/10 05:10:08;;;;;;;4.50;2.10;;;20.10;93.10;;;;;;4916112;29;20438;-79
2022/07/10 05:12:34;;;;;;;9.02;3.08;;;20.10;93.10;;;;;;4915970;29;20025;-79
2022/07/10 05:15:00;;;;;;;4.80;2.30;;;20.20;93.10;;;;;;4916333;29;20404;-79
2022/07/10 05:17:31;;;;;;;6.05;2.28;;;20.20;93.10;;;;;;4915354;29;20164;-79
2022/07/10 05:19:57;;;;;;;5.43;2.40;;;20.20;92.80;;;;;;4916017;29;20438;-79
2022/07/10 05:22:23;;;;;;;5.80;2.38;;;20.20;93.00;;;;;;4916739;29;20036;-79
2022/07/10 05:24:49;;;;;;;6.22;2.70;;;20.20;93.30;;;;;;4919583;29;20039;-79
2022/07/10 05:27:17;;;;;;;5.03;2.47;;;20.30;92.90;;;;;;4919690;29;20028;-79
2022/07/10 05:29:43;;;;;;;5.70;2.53;;;20.30;92.90;;;;;;4919247;29;20020;-79
2022/07/10 05:32:09;;;;;;;8.32;2.53;;;20.40;92.70;;;;;;4918989;29;20031;-79
2022/07/10 05:34:34;;;;;;;7.55;2.45;;;20.40;92.70;;;;;;4919033;29;20024;-79
2022/07/10 05:37:00;;;;;;;5.05;2.38;;;20.50;92.70;;;;;;4919263;29;20091;-79
2022/07/10 05:39:26;;;;;;;8.32;2.70;;;20.50;92.70;;;;;;4919324;29;20035;-79
2022/07/10 05:41:52;;;;;;;5.38;3.03;;;20.50;92.60;;;;;;4919114;29;20035;-79
2022/07/10 05:44:19;;;;;;;7.40;2.80;;;20.60;91.80;;;;;;4919272;29;20032;-79
2022/07/10 05:46:46;;;;;;;5.78;2.38;;;20.60;91.70;;;;;;4918672;29;20059;-79
2022/07/10 05:49:12;;;;;;;5.18;2.50;;;20.70;91.90;;;;;;4918455;29;20504;-79
2022/07/10 05:51:37;;;;;;;12.77;2.67;;;20.70;91.10;;;;;;4918375;29;20020;-79
2022/07/10 05:54:03;;;;;;;5.88;2.63;;;20.70;90.90;;;;;;4919263;29;20413;-79
2022/07/10 05:56:29;;;;;;;6.03;2.38;;;20.80;90.70;;;;;;4918570;29;20036;-79
2022/07/10 05:58:55;;;;;;;6.05;2.78;;;20.80;90.60;;;;;;4905073;29;20059;-78
2022/07/10 06:01:22;;;;;;;4.75;2.53;;;20.90;91.40;;;;;;4899184;29;20032;-79
2022/07/10 06:03:47;;;;;;;7.22;2.63;;;20.90;91.00;;;;;;4899555;29;20490;-78
2022/07/10 06:06:16;;;;;;;7.07;2.85;;;20.90;90.80;;;;;;4918009;29;20066;-79
2022/07/10 06:08:45;;;;;;;2.97;2.17;;;21.00;90.70;;;;;;4918503;29;20036;-79
2022/07/10 06:11:11;;;;;;;6.35;2.75;;;21.00;91.00;;;;;;4918840;29;20492;-79
2022/07/10 06:13:37;;;;;;;7.15;2.20;;;20.90;90.90;;;;;;4917979;29;20016;-79
2022/07/10 06:16:04;;;;;;;6.97;2.53;;;20.90;90.80;;;;;;4918202;29;20032;-79
2022/07/10 06:18:31;;;;;;;6.95;2.63;;;20.90;90.70;;;;;;4918730;29;20021;-78
2022/07/10 06:20:56;;;;;;;5.60;2.25;;;21.00;90.60;;;;;;4916978;29;20032;-78
2022/07/10 06:23:22;;;;;;;5.82;2.15;;;21.00;90.50;;;;;;4918446;29;20039;-79
2022/07/10 06:25:50;;;;;;;5.03;2.63;;;21.00;90.80;;;;;;4916882;29;20032;-79
2022/07/10 06:28:17;;;;;;;5.97;2.50;;;21.00;90.90;;;;;;4918302;29;20065;-79
2022/07/10 06:30:43;;;;;;;6.60;2.47;;;21.10;90.80;;;;;;4916445;29;20024;-79
2022/07/10 06:33:08;;;;;;;5.90;2.50;;;21.00;91.00;;;;;;4917155;29;20028;-79
2022/07/10 06:35:34;;;;;;;4.28;2.35;;;21.00;91.10;;;;;;4916048;29;20040;-79
2022/07/10 06:38:00;;;;;;;5.47;2.80;;;21.00;90.50;;;;;;4917629;29;20060;-79
2022/07/10 06:40:28;;;;;;;8.68;2.67;;;21.10;91.00;;;;;;4917721;29;20032;-79
2022/07/10 06:42:53;;;;;;;6.55;2.60;;;21.10;90.70;;;;;;4918123;29;20028;-79
2022/07/10 06:45:21;;;;;;;6.60;2.00;;;21.10;90.70;;;;;;4917119;29;20035;-78
2022/07/10 06:47:58;;;;;;;5.57;2.65;;;21.20;90.80;;;;;;4917532;29;20385;-79
2022/07/10 06:50:34;;;;;;;5.38;2.60;;;21.20;90.80;;;;;;4917586;29;20024;-78
2022/07/10 06:53:00;;;;;;;7.22;2.90;;;21.20;90.90;;;;;;4917950;29;20024;-79
2022/07/10 06:55:26;;;;;;;7.43;2.45;;;21.30;90.70;;;;;;4916884;29;20059;-79
2022/07/10 06:57:52;;;;;;;8.90;3.22;;;21.30;90.80;;;;;;4915542;29;20119;-79
2022/07/10 07:00:17;;;;;;;8.23;2.75;;;21.30;90.60;;;;;;4916628;29;20111;-82
2022/07/10 07:02:43;;;;;;;5.78;2.80;;;21.30;90.40;;;;;;4917665;29;20028;-84
2022/07/10 07:05:09;;;;;;;5.88;2.88;;;21.30;90.50;;;;;;4915673;29;20515;-80
2022/07/10 07:07:35;;;;;;;6.22;2.72;;;21.40;90.80;;;;;;4915607;29;20067;-80
2022/07/10 07:10:02;;;;;;;7.78;2.78;;;21.40;90.90;;;;;;4915271;29;20063;-80
2022/07/10 07:12:28;;;;;;;8.02;2.70;;;21.40;91.10;;;;;;4913847;29;20059;-78
2022/07/10 07:14:54;;;;;;;6.25;2.97;;;21.40;90.40;;;;;;4912327;29;20055;-77
2022/07/10 07:17:23;;;;;;;4.32;2.60;;;21.50;91.10;;;;;;4913414;29;20031;-77
2022/07/10 07:25:18;;;;;;;5.05;2.50;;;21.70;91.00;;;;;;4916008;29;20124;-79
2022/07/10 07:27:44;;;;;;;7.00;2.70;;;21.70;91.00;;;;;;4915014;29;20106;-79
2022/07/10 07:30:14;;;;;;;7.60;3.00;;;21.80;90.90;;;;;;4916538;29;20061;-80
2022/07/10 07:32:41;;;;;;;5.05;2.40;;;21.80;90.30;;;;;;4915823;29;20103;-78
2022/07/10 07:35:08;;;;;;;4.22;2.83;;;22.00;90.20;;;;;;4916266;29;20032;-77
2022/07/10 07:37:40;;;;;;;8.23;3.08;;;22.00;90.00;;;;;;4908955;29;20052;-75
2022/07/10 07:40:12;;;;;;;4.00;2.33;;;22.10;90.40;;;;;;4914027;29;20084;-78
2022/07/10 07:42:38;;;;;;;8.35;2.78;;;22.20;90.00;;;;;;4915370;29;20099;-79
2022/07/10 07:45:05;;;;;;;7.25;2.95;;;22.30;89.00;;;;;;4914318;29;20044;-79
2022/07/10 07:47:42;;;;;;;7.30;2.95;;;22.40;90.00;;;;;;4907160;29;20448;-79
2022/07/10 07:50:08;;;;;;;10.40;2.80;;;22.40;88.30;;;;;;4911093;29;20032;-75
2022/07/10 07:52:35;;;;;;;8.52;2.95;;;22.50;89.00;;;;;;4915657;29;20032;-75
2022/07/10 07:55:01;;;;;;;4.05;2.70;;;22.60;88.50;;;;;;4913932;29;20028;-75
2022/07/10 07:57:26;;;;;;;10.02;3.13;;;22.70;88.60;;;;;;4913571;29;20599;-75
2022/07/10 07:59:52;;;;;;;8.60;3.00;;;22.80;88.70;;;;;;4911044;29;20095;-75
2022/07/10 08:02:18;;;;;;;7.97;2.65;;;22.80;87.90;;;;;;4915916;29;20036;-75
2022/07/10 08:04:43;;;;;;;12.30;2.72;;;22.90;88.10;;;;;;4916207;29;20040;-79
2022/07/10 08:07:09;;;;;;;7.57;2.75;;;23.10;88.00;;;;;;4904360;29;20032;-74
2022/07/10 08:09:35;;;;;;;9.07;2.90;;;23.20;87.00;;;;;;4912642;29;20160;-74
2022/07/10 08:12:01;;;;;;;7.60;2.88;;;23.20;86.90;;;;;;4912729;29;20091;-77
2022/07/10 08:14:26;;;;;;;7.55;3.00;;;23.20;86.00;;;;;;4913123;29;20057;-77
2022/07/10 08:16:52;;;;;;;5.57;2.85;;;23.50;85.10;;;;;;4912519;29;20016;-77
2022/07/10 08:19:18;;;;;;;6.57;2.60;;;23.70;84.90;;;;;;4913111;29;20024;-79
2022/07/10 08:21:43;;;;;;;5.57;3.00;;;23.70;84.30;;;;;;4896409;29;20017;-77
2022/07/10 08:24:09;;;;;;;9.70;3.00;;;23.90;83.50;;;;;;4906155;29;20028;-75
2022/07/10 08:26:35;;;;;;;7.30;2.80;;;24.20;82.90;;;;;;4912903;29;20056;-75
2022/07/10 08:29:00;;;;;;;6.80;2.38;;;24.30;81.90;;;;;;4912680;29;20024;-74
2022/07/10 08:31:26;;;;;;;5.35;2.65;;;24.50;80.90;;;;;;4913026;29;20506;-75
2022/07/10 08:33:52;;;;;;;6.32;2.72;;;24.80;79.30;;;;;;4912700;29;20071;-76
2022/07/10 08:36:18;;;;;;;6.32;2.97;;;25.20;78.50;;;;;;4913454;29;20053;-75
2022/07/10 08:38:43;;;;;;;10.90;2.95;;;25.30;76.90;;;;;;4896460;29;20060;-77
2022/07/10 08:41:12;;;;;;;8.38;3.25;;;25.50;76.30;;;;;;4898103;29;20071;-78
2022/07/10 08:43:38;;;;;;;4.95;2.53;;;25.90;75.70;;;;;;4899101;29;20031;-78
2022/07/10 08:46:05;;;;;;;9.45;3.10;;;26.10;74.80;;;;;;4901163;29;20409;-81
2022/07/10 08:48:35;;;;;;;11.30;2.58;;;26.30;73.60;;;;;;4902569;29;20095;-78
2022/07/10 08:51:04;;;;;;;6.40;2.50;;;26.60;71.50;;;;;;4909931;29;20028;-78
2022/07/10 08:53:31;;;;;;;5.65;2.28;;;26.90;71.40;;;;;;4915486;29;20441;-80
2022/07/10 08:55:58;;;;;;;6.28;2.53;;;27.30;70.20;;;;;;4913707;29;20446;-79
2022/07/10 08:58:25;;;;;;;9.27;2.33;;;27.30;68.90;;;;;;4918763;29;20521;-79
2022/07/10 09:00:51;;;;;;;11.20;2.40;;;27.70;66.40;;;;;;4918876;29;20043;-78
2022/07/10 09:03:17;;;;;;;6.10;2.50;;;28.00;66.80;;;;;;4918546;29;20416;-80
2022/07/10 10:26:56;;;;;;;2.95;1.73;;;32.30;50.10;;;;;;4991589;23;20472;-77
2022/07/10 10:29:22;;;;;;;3.50;1.48;;;32.40;48.80;;;;;;4918226;29;20028;-76
2022/07/10 10:31:48;;;;;;;5.35;2.15;;;32.40;48.50;;;;;;4917942;29;20028;-76
2022/07/10 10:34:41;;;;;;;4.10;2.17;;;32.50;48.60;;;;;;4917725;29;20020;-77
2022/07/10 10:37:27;;;;;;;6.50;1.77;;;32.50;48.60;;;;;;4917938;29;20043;-77
2022/07/10 10:39:54;;;;;;;5.10;1.98;;;32.90;49.40;;;;;;4916177;29;20103;-76
2022/07/10 10:42:34;;;;;;;3.67;1.77;;;32.80;47.30;;;;;;4916643;29;20032;-77
2022/07/10 10:45:34;;;;;;;4.90;1.80;;;32.90;46.40;;;;;;4917616;29;20020;-77
2022/07/10 10:48:02;;;;;;;3.40;1.95;;;33.20;47.00;;;;;;4910539;29;20025;-77
2022/07/10 10:50:38;;;;;;;4.07;1.60;;;33.10;46.90;;;;;;4914465;29;20556;-77
2022/07/10 10:53:05;;;;;;;4.43;1.63;;;33.10;46.00;;;;;;4917781;29;20060;-77
2022/07/10 10:55:30;;;;;;;5.38;1.83;;;32.30;46.00;;;;;;4909701;29;20136;-77
2022/07/10 10:58:14;;;;;;;2.45;1.25;;;32.80;46.10;;;;;;4903992;29;20060;-77
2022/07/10 11:00:41;;;;;;;6.97;1.80;;;32.60;45.80;;;;;;4917535;29;20028;-78
2022/07/10 11:03:18;;;;;;;2.95;1.67;;;32.40;45.00;;;;;;4918143;29;20024;-77
2022/07/10 11:05:45;;;;;;;4.30;1.58;;;32.60;45.50;;;;;;4917573;29;20376;-77
2022/07/10 11:08:12;;;;;;;5.50;1.90;;;32.90;46.30;;;;;;4916956;29;20032;-78
2022/07/10 11:10:43;;;;;;;8.82;1.70;;;33.00;45.40;;;;;;4917235;29;20480;-77
2022/07/10 11:13:13;;;;;;;7.63;2.08;;;33.20;45.20;;;;;;4917515;29;20035;-77
2022/07/10 11:15:45;;;;;;;3.65;1.50;;;33.10;45.00;;;;;;4917673;29;20108;-76
2022/07/10 11:18:13;;;;;;;3.22;1.70;;;33.50;44.00;;;;;;4917447;29;20032;-76
2022/07/10 11:20:49;;;;;;;4.90;1.85;;;33.60;44.10;;;;;;4910891;29;20384;-77
2022/07/10 11:23:33;;;;;;;5.68;1.52;;;33.50;44.10;;;;;;4902865;29;20429;-75
2022/07/10 11:26:14;;;;;;;3.28;1.60;;;33.30;43.10;;;;;;4911369;29;20044;-76
2022/07/10 11:28:57;;;;;;;3.42;1.75;;;33.30;43.50;;;;;;4915480;29;20412;-79
2022/07/10 11:31:24;;;;;;;6.10;1.85;;;33.30;42.40;;;;;;4902720;29;20119;-78
2022/07/10 11:33:53;;;;;;;2.20;1.25;;;33.40;42.00;;;;;;4915103;29;20526;-76
2022/07/10 11:36:21;;;;;;;3.35;1.88;;;33.60;41.50;;;;;;4897111;29;20064;-74
2022/07/10 11:38:47;;;;;;;4.78;2.03;;;33.80;42.90;;;;;;4904624;29;20029;-73
2022/07/10 11:41:23;;;;;;;5.93;1.77;;;34.00;42.90;;;;;;4898193;29;20039;-76
2022/07/10 11:43:51;;;;;;;9.60;2.40;;;34.10;43.10;;;;;;4898117;29;20119;-75
2022/07/10 11:46:18;;;;;;;4.63;1.80;;;33.90;42.90;;;;;;4905808;29;20151;-83
2022/07/10 11:48:44;;;;;;;3.30;1.70;;;33.50;42.20;;;;;;4908586;29;20045;-76
2022/07/10 11:51:27;;;;;;;4.78;2.05;;;33.90;42.20;;;;;;4909523;29;20020;-76
2022/07/10 11:54:07;;;;;;;3.95;1.88;;;34.10;42.10;;;;;;4909753;29;20040;-76
2022/07/10 11:56:39;;;;;;;4.40;1.98;;;34.20;43.70;;;;;;4912972;29;20476;-77
2022/07/10 11:59:12;;;;;;;2.28;1.58;;;34.10;41.40;;;;;;4916247;29;20028;-76
2022/07/10 12:01:45;;;;;;;3.65;1.42;;;34.20;40.80;;;;;;4916937;29;20103;-78
2022/07/10 12:04:13;;;;;;;4.38;1.70;;;33.90;40.40;;;;;;4916508;29;20032;-76
2022/07/10 12:06:44;;;;;;;3.92;1.63;;;33.90;41.00;;;;;;4916835;29;20107;-77
2022/07/10 12:09:18;;;;;;;5.05;1.80;;;33.80;41.50;;;;;;4916310;29;20028;-76
2022/07/10 12:11:57;;;;;;;3.65;1.83;;;34.00;42.00;;;;;;4913066;29;20047;-76
2022/07/10 12:14:23;;;;;;;6.85;1.75;;;34.30;40.60;;;;;;4916901;29;20100;-76
2022/07/10 12:16:51;;;;;;;3.10;1.77;;;34.40;41.10;;;;;;4916480;29;20081;-77
2022/07/10 12:19:30;;;;;;;6.80;1.80;;;34.40;40.80;;;;;;4916360;29;20055;-77
2022/07/10 12:21:57;;;;;;;4.05;1.70;;;34.40;41.00;;;;;;4916417;29;20032;-77
2022/07/10 12:24:24;;;;;;;4.15;1.70;;;34.40;39.30;;;;;;4915932;29;20136;-77
2022/07/10 12:26:51;;;;;;;5.20;2.15;;;34.60;40.00;;;;;;4915724;29;20052;-76
2022/07/10 12:29:24;;;;;;;2.88;1.40;;;35.20;40.00;;;;;;4916187;29;20039;-77
2022/07/10 12:31:55;;;;;;;3.83;1.80;;;34.70;39.20;;;;;;4917577;29;20038;-77
2022/07/10 12:34:33;;;;;;;6.43;1.95;;;34.80;39.70;;;;;;4920104;29;20107;-76
2022/07/10 12:37:05;;;;;;;11.20;5.22;;;35.10;38.80;;;;;;4920239;29;20103;-76
2022/07/10 12:39:31;;;;;;;2.97;1.83;;;35.00;38.80;;;;;;4920087;29;20152;-76
2022/07/10 12:41:58;;;;;;;3.95;1.65;;;34.40;39.10;;;;;;4920618;29;20052;-76
2022/07/10 12:44:37;;;;;;;4.30;1.60;;;34.60;38.00;;;;;;4920209;29;20030;-76
2022/07/10 12:47:09;;;;;;;3.25;1.35;;;34.50;38.20;;;;;;4917879;29;20024;-76
2022/07/10 12:49:54;;;;;;;2.88;1.45;;;34.50;37.90;;;;;;4920128;29;20443;-76
2022/07/10 12:52:24;;;;;;;3.45;1.42;;;34.50;38.00;;;;;;4920220;29;20024;-78
2022/07/10 12:55:05;;;;;;;3.40;1.33;;;34.60;37.60;;;;;;4920283;29;20536;-78
2022/07/10 12:57:31;;;;;;;2.73;1.20;;;34.50;37.10;;;;;;4919767;29;20028;-78
2022/07/10 13:00:05;;;;;;;2.70;1.42;;;34.90;37.20;;;;;;4919863;29;20035;-78
2022/07/10 13:02:31;;;;;;;2.13;1.40;;;35.00;37.10;;;;;;4917810;29;20127;-78
2022/07/10 13:04:58;;;;;;;4.22;1.52;;;35.10;37.50;;;;;;4918603;29;20123;-77
2022/07/10 13:07:33;;;;;;;2.55;1.60;;;35.30;37.50;;;;;;4919027;29;20039;-78
2022/07/10 13:10:04;;;;;;;4.53;1.48;;;35.10;37.50;;;;;;4919906;29;20024;-78
2022/07/10 13:12:30;;;;;;;7.10;1.80;;;34.70;37.50;;;;;;4919475;29;20024;-78
2022/07/10 13:14:56;;;;;;;1.80;1.40;;;34.50;37.00;;;;;;4919877;29;20036;-78
2022/07/10 13:17:21;;;;;;;4.40;1.30;;;34.60;37.30;;;;;;4919334;29;20039;-78
2022/07/10 13:19:47;;;;;;;4.47;1.38;;;34.60;35.60;;;;;;4919521;29;20104;-78
2022/07/10 13:22:12;;;;;;;2.63;1.20;;;34.60;36.00;;;;;;4919923;29;20429;-78
2022/07/10 13:24:38;;;;;;;4.05;1.33;;;34.60;35.50;;;;;;4919091;29;20032;-78
2022/07/10 13:27:04;;;;;;;4.15;1.70;;;34.60;36.60;;;;;;4918872;29;20052;-78
2022/07/10 13:29:30;;;;;;;4.03;1.60;;;34.40;35.60;;;;;;4919370;29;20028;-78
2022/07/10 13:31:56;;;;;;;3.45;1.30;;;34.50;35.80;;;;;;4918827;29;20091;-78
2022/07/10 13:34:21;;;;;;;1.80;1.30;;;34.70;36.80;;;;;;4919084;29;20225;-77
2022/07/10 13:36:47;;;;;;;2.30;1.23;;;34.70;36.20;;;;;;4918239;29;20024;-77
2022/07/10 13:39:12;;;;;;;4.72;1.50;;;34.60;37.10;;;;;;4918694;29;20040;-77
2022/07/10 13:41:38;;;;;;;2.67;1.40;;;34.20;36.90;;;;;;4918963;29;20083;-78
2022/07/10 13:44:04;;;;;;;2.83;1.25;;;34.10;36.20;;;;;;4918929;29;20083;-78
2022/07/10 13:46:30;;;;;;;4.90;1.13;;;34.30;35.10;;;;;;4918898;29;20127;-78
2022/07/10 13:48:56;;;;;;;2.85;1.17;;;34.40;35.80;;;;;;4918915;29;20056;-78
2022/07/10 13:51:22;;;;;;;4.32;1.40;;;34.50;35.60;;;;;;4918851;29;20032;-78
2022/07/10 13:53:47;;;;;;;9.90;1.40;;;34.20;34.40;;;;;;4919202;29;20477;-78
2022/07/10 13:56:14;;;;;;;3.55;1.42;;;34.50;35.00;;;;;;4918781;29;20495;-78
2022/07/10 13:58:39;;;;;;;3.25;1.35;;;34.50;35.60;;;;;;4917124;29;20429;-76
2022/07/10 14:01:05;;;;;;;3.67;1.52;;;34.60;35.20;;;;;;4918446;29;20066;-78
2022/07/10 14:03:31;;;;;;;2.38;1.30;;;34.60;35.30;;;;;;4918625;29;20031;-78
2022/07/10 14:05:57;;;;;;;4.50;1.48;;;34.50;35.90;;;;;;4918735;29;20115;-78
2022/07/10 14:08:23;;;;;;;1.83;1.17;;;34.50;35.50;;;;;;4918684;29;20043;-78
2022/07/10 14:10:49;;;;;;;2.83;1.10;;;34.40;35.90;;;;;;4918591;29;20016;-78
2022/07/10 14:13:15;;;;;;;3.67;1.23;;;34.60;36.00;;;;;;4918960;29;20025;-78
2022/07/10 14:15:44;;;;;;;3.20;1.20;;;34.70;34.00;;;;;;4918199;29;20048;-78